createdAt,value
2019-04-16T00:01:02.130Z,10.40
2019-04-16T00:03:32.016Z,10.53
2019-04-16T00:06:05.787Z,10.23
2019-04-16T00:08:42.694Z,8.87
2019-04-16T00:11:16.931Z,7.95
2019-04-16T00:13:57.099Z,8.00
2019-04-16T00:16:26.709Z,12.47
2019-04-16T00:18:58.221Z,8.73
2019-04-16T00:21:41.850Z,10.73
2019-04-16T00:27:15.913Z,9.17
2019-04-16T00:29:45.424Z,8.00
2019-04-16T00:32:18.343Z,9.77
2019-04-16T00:34:47.698Z,7.23
2019-04-16T00:37:20.534Z,10.75
2019-04-16T00:39:49.834Z,10.10
2019-04-16T00:42:20.629Z,8.77
2019-04-16T00:44:49.982Z,7.90
2019-04-16T00:47:20.034Z,10.47
2019-04-16T00:49:49.871Z,8.77
2019-04-16T00:52:19.917Z,9.10
2019-04-16T00:54:49.552Z,8.27
2019-04-16T00:57:19.073Z,8.30
2019-04-16T00:59:48.480Z,8.27
2019-04-16T01:02:18.099Z,8.67
2019-04-16T01:04:47.734Z,10.63
2019-04-16T01:07:18.488Z,8.53
2019-04-16T01:09:47.900Z,9.87
2019-04-16T01:12:17.610Z,10.23
2019-04-16T01:14:47.449Z,10.33
2019-04-16T01:17:16.831Z,8.30
2019-04-16T01:19:46.475Z,8.08
2019-04-16T01:22:16.786Z,8.30
2019-04-16T01:24:46.522Z,8.98
2019-04-16T01:27:16.848Z,8.90
2019-04-16T01:29:46.492Z,7.87
2019-04-16T01:32:19.909Z,7.67
2019-04-16T01:35:06.598Z,10.70
2019-04-16T01:37:56.578Z,7.70
2019-04-16T01:40:29.693Z,8.87
2019-04-16T01:42:59.065Z,13.83
2019-04-16T01:45:29.775Z,8.10
2019-04-16T01:47:59.873Z,8.83
2019-04-16T01:50:29.232Z,8.55
2019-04-16T01:52:59.287Z,6.80
2019-04-16T01:55:28.964Z,7.47
2019-04-16T01:57:59.658Z,7.35
2019-04-16T02:00:30.241Z,10.47
2019-04-16T02:02:59.891Z,7.03
2019-04-16T02:05:29.198Z,6.20
2019-04-16T02:07:59.247Z,8.83
2019-04-16T02:10:29.602Z,10.25
2019-04-16T02:12:59.373Z,8.37
2019-04-16T02:15:28.992Z,7.70
2019-04-16T02:17:59.539Z,7.47
2019-04-16T02:20:29.090Z,7.80
2019-04-16T02:22:58.792Z,6.08
2019-04-16T02:25:28.144Z,8.73
2019-04-16T02:27:57.872Z,7.13
2019-04-16T02:30:27.329Z,5.83
2019-04-16T02:32:56.961Z,8.70
2019-04-16T02:35:26.896Z,7.92
2019-04-16T02:37:56.259Z,7.73
2019-04-16T02:40:25.777Z,9.80
2019-04-16T02:42:55.146Z,6.77
2019-04-16T02:45:25.960Z,9.33
2019-04-16T02:47:55.419Z,6.93
2019-04-16T02:50:32.009Z,8.00
2019-04-16T02:53:03.473Z,6.73
2019-04-16T02:55:35.011Z,9.33
2019-04-16T02:58:06.294Z,7.05
2019-04-16T03:00:37.742Z,9.75
2019-04-16T03:03:08.753Z,7.23
2019-04-16T03:05:40.203Z,8.07
2019-04-16T03:08:15.396Z,9.17
2019-04-16T03:10:45.404Z,8.73
2019-04-16T03:13:15.279Z,8.70
2019-04-16T03:15:46.494Z,9.33
2019-04-16T03:18:17.531Z,4.60
2019-04-16T03:20:46.889Z,8.67
2019-04-16T03:23:17.150Z,8.43
2019-04-16T03:25:46.495Z,8.37
2019-04-16T03:28:16.902Z,7.90
2019-04-16T03:30:46.300Z,7.93
2019-04-16T03:33:16.527Z,8.23
2019-04-16T03:35:46.027Z,7.10
2019-04-16T03:38:15.649Z,8.47
2019-04-16T03:40:45.045Z,7.33
2019-04-16T03:43:14.403Z,8.70
2019-04-16T03:45:43.913Z,7.03
2019-04-16T03:48:13.534Z,7.83
2019-04-16T03:50:42.885Z,8.13
2019-04-16T03:53:16.653Z,5.40
2019-04-16T03:55:44.268Z,7.63
2019-04-16T03:58:13.976Z,9.03
2019-04-16T04:00:44.132Z,8.90
2019-04-16T04:03:15.307Z,11.37
2019-04-16T04:05:46.540Z,9.70
2019-04-16T04:08:17.897Z,8.77
2019-04-16T04:10:48.825Z,8.10
2019-04-16T04:13:18.864Z,9.30
2019-04-16T04:15:49.789Z,8.45
2019-04-16T04:18:19.298Z,9.57
2019-04-16T04:20:50.755Z,8.00
2019-04-16T04:23:20.092Z,10.00
2019-04-16T04:25:49.913Z,8.50
2019-04-16T04:28:20.549Z,8.47
2019-04-16T04:30:49.956Z,8.67
2019-04-16T04:33:41.709Z,7.67
2019-04-16T04:36:10.304Z,15.63
2019-04-16T04:38:40.881Z,7.83
2019-04-16T04:41:10.455Z,7.77
2019-04-16T04:43:40.117Z,6.40
2019-04-16T04:46:14.515Z,10.63
2019-04-16T04:48:41.291Z,11.37
2019-04-16T04:51:11.248Z,7.57
2019-04-16T04:53:40.914Z,7.78
2019-04-16T04:56:12.193Z,8.67
2019-04-16T04:58:41.568Z,6.80
2019-04-16T05:01:13.618Z,9.00
2019-04-16T05:03:47.024Z,13.17
2019-04-16T05:06:17.338Z,7.90
2019-04-16T05:08:47.043Z,9.90
2019-04-16T05:11:16.973Z,7.20
2019-04-16T05:13:46.450Z,9.43
2019-04-16T05:16:16.051Z,8.23
2019-04-16T05:18:46.352Z,9.73
2019-04-16T05:21:18.934Z,6.17
2019-04-16T05:23:47.073Z,9.97
2019-04-16T05:26:16.475Z,8.67
2019-04-16T05:28:46.092Z,9.75
2019-04-16T05:31:15.434Z,7.00
2019-04-16T05:33:45.077Z,8.00
2019-04-16T05:36:15.467Z,7.63
2019-04-16T05:38:45.185Z,9.03
2019-04-16T05:41:20.772Z,9.53
2019-04-16T05:43:46.580Z,8.90
2019-04-16T05:46:16.155Z,8.20
2019-04-16T05:48:45.521Z,8.60
2019-04-16T05:51:15.112Z,8.07
2019-04-16T05:53:46.136Z,6.93
2019-04-16T05:56:17.129Z,8.10
2019-04-16T05:58:46.517Z,9.43
2019-04-16T06:01:17.809Z,11.07
2019-04-16T06:03:52.994Z,8.23
2019-04-16T06:06:20.361Z,8.33
2019-04-16T06:08:50.118Z,9.75
2019-04-16T06:11:28.549Z,10.73
2019-04-16T06:14:07.704Z,9.77
2019-04-16T06:16:38.888Z,10.80
2019-04-16T06:19:19.755Z,7.07
2019-04-16T06:22:02.893Z,8.50
2019-04-16T06:24:42.868Z,9.20
2019-04-16T06:27:13.953Z,8.70
2019-04-16T06:29:47.010Z,6.60
2019-04-16T06:32:35.917Z,9.77
2019-04-16T06:35:07.188Z,9.20
2019-04-16T06:37:47.119Z,9.23
2019-04-16T06:40:34.321Z,7.87
2019-04-16T06:43:05.635Z,7.87
2019-04-16T06:45:38.009Z,7.17
2019-04-16T06:48:12.890Z,8.13
2019-04-16T06:50:44.618Z,11.20
2019-04-16T06:53:15.949Z,9.00
2019-04-16T06:55:59.427Z,8.07
2019-04-16T06:58:30.729Z,11.00
2019-04-16T07:01:21.971Z,9.83
2019-04-16T07:03:58.443Z,10.00
2019-04-16T07:06:39.268Z,8.83
2019-04-16T07:09:23.432Z,11.07
2019-04-16T07:11:55.137Z,5.55
2019-04-16T07:14:26.764Z,13.28
2019-04-16T07:16:59.780Z,6.40
2019-04-16T07:19:27.594Z,8.70
2019-04-16T07:21:58.083Z,8.47
2019-04-16T07:24:30.703Z,9.27
2019-04-16T07:27:00.134Z,10.08
2019-04-16T07:29:32.872Z,11.40
2019-04-16T07:32:21.823Z,9.63
2019-04-16T07:34:58.963Z,10.97
2019-04-16T07:37:36.228Z,11.27
2019-04-16T07:40:10.152Z,11.20
2019-04-16T07:42:52.034Z,11.20
2019-04-16T07:45:18.606Z,12.50
2019-04-16T07:48:06.735Z,11.95
2019-04-16T07:50:54.691Z,9.10
2019-04-16T07:53:47.395Z,8.53
2019-04-16T07:56:19.021Z,8.13
2019-04-16T07:58:48.414Z,7.43
2019-04-16T08:01:17.790Z,8.80
2019-04-16T08:03:47.451Z,10.03
2019-04-16T08:06:16.814Z,8.40
2019-04-16T08:08:46.788Z,9.57
2019-04-16T08:11:16.403Z,10.67
2019-04-16T08:13:46.149Z,12.03
2019-04-16T08:16:15.523Z,12.07
2019-04-16T08:18:48.918Z,10.20
2019-04-16T08:21:18.811Z,10.13
2019-04-16T08:23:52.917Z,8.20
2019-04-16T08:26:22.405Z,9.27
2019-04-16T08:28:52.174Z,9.27
2019-04-16T08:31:23.235Z,8.37
2019-04-16T08:33:54.147Z,10.50
2019-04-16T08:36:23.637Z,9.57
2019-04-16T08:38:53.304Z,9.00
2019-04-16T08:41:22.666Z,10.50
2019-04-16T08:43:52.332Z,9.53
2019-04-16T08:46:21.953Z,9.23
2019-04-16T08:48:54.231Z,11.27
2019-04-16T08:51:30.422Z,9.30
2019-04-16T08:53:56.020Z,12.37
2019-04-16T08:56:25.853Z,12.97
2019-04-16T08:58:59.982Z,10.60
2019-04-16T09:01:31.603Z,9.43
2019-04-16T09:04:02.442Z,10.93
2019-04-16T09:06:32.037Z,10.73
2019-04-16T09:09:12.458Z,12.13
2019-04-16T09:11:36.402Z,9.65
2019-04-16T09:14:07.630Z,9.47
2019-04-16T09:16:57.240Z,7.83
2019-04-16T09:19:27.549Z,13.90
2019-04-16T09:21:58.482Z,10.53
2019-04-16T09:24:32.497Z,12.47
2019-04-16T09:27:06.705Z,14.60
2019-04-16T09:29:41.282Z,10.40
2019-04-16T09:32:28.445Z,12.70
2019-04-16T09:35:18.687Z,10.17
2019-04-16T09:37:45.417Z,9.80
2019-04-16T09:40:25.661Z,11.90
2019-04-16T09:42:55.412Z,12.73
2019-04-16T09:45:26.244Z,8.80
2019-04-16T09:47:56.217Z,12.37
2019-04-16T09:50:26.004Z,10.70
2019-04-16T09:52:56.442Z,12.17
2019-04-16T09:55:25.976Z,12.70
2019-04-16T09:57:55.768Z,11.13
2019-04-16T10:00:27.681Z,10.80
2019-04-16T10:02:58.711Z,13.30
2019-04-16T10:05:29.557Z,11.37
2019-04-16T10:07:59.550Z,13.33
2019-04-16T10:10:29.201Z,9.37
2019-04-16T10:12:58.874Z,23.17
2019-04-16T10:15:28.560Z,10.93
2019-04-16T10:17:58.600Z,10.30
2019-04-16T10:20:31.098Z,8.83
2019-04-16T10:23:02.288Z,11.03
2019-04-16T10:25:33.569Z,10.98
2019-04-16T10:28:05.687Z,11.87
2019-04-16T10:30:36.913Z,11.63
2019-04-16T10:33:06.681Z,11.68
2019-04-16T10:35:36.095Z,15.90
2019-04-16T10:38:07.422Z,10.93
2019-04-16T10:40:38.765Z,10.70
2019-04-16T10:43:18.287Z,13.03
2019-04-16T10:45:55.216Z,8.83
2019-04-16T10:48:27.709Z,13.97
2019-04-16T10:51:04.157Z,13.70
2019-04-16T10:53:47.741Z,13.68
2019-04-16T10:56:34.868Z,11.97
2019-04-16T10:59:21.896Z,11.93
2019-04-16T11:01:54.668Z,10.93
2019-04-16T11:04:43.197Z,12.57
2019-04-16T11:07:14.036Z,13.77
2019-04-16T11:09:43.756Z,13.60
2019-04-16T11:12:13.158Z,12.33
2019-04-16T11:14:42.792Z,12.10
2019-04-16T11:17:12.175Z,13.33
2019-04-16T11:19:41.850Z,14.30
2019-04-16T11:22:11.349Z,15.10
2019-04-16T11:24:40.996Z,13.50
2019-04-16T11:27:10.741Z,13.85
2019-04-16T11:29:41.932Z,11.57
2019-04-16T11:32:12.841Z,13.00
2019-04-16T11:34:42.311Z,10.85
2019-04-16T11:37:12.190Z,15.80
2019-04-16T11:39:42.206Z,13.68
2019-04-16T11:42:12.722Z,16.20
2019-04-16T11:44:42.698Z,14.40
2019-04-16T11:47:12.077Z,20.93
2019-04-16T11:49:42.316Z,12.37
2019-04-16T11:52:11.688Z,12.63
2019-04-16T11:54:46.783Z,15.70
2019-04-16T11:57:13.956Z,13.07
2019-04-16T11:59:43.374Z,15.13
2019-04-16T12:02:14.469Z,10.90
2019-04-16T12:04:55.849Z,15.65
2019-04-16T12:07:36.443Z,14.40
2019-04-16T12:10:13.703Z,12.03
2019-04-16T12:12:52.138Z,15.30
2019-04-16T12:15:36.392Z,13.98
2019-04-16T12:18:13.548Z,14.90
2019-04-16T12:20:44.676Z,12.90
2019-04-16T12:23:22.438Z,14.33
2019-04-16T12:26:10.217Z,16.70
2019-04-16T12:29:00.185Z,15.40
2019-04-16T12:31:41.213Z,15.70
2019-04-16T12:34:12.286Z,14.53
2019-04-16T12:36:53.130Z,15.10
2019-04-16T12:39:24.462Z,18.10
2019-04-16T12:42:04.386Z,14.03
2019-04-16T12:44:46.081Z,12.37
2019-04-16T12:47:20.507Z,15.30
2019-04-16T12:49:54.287Z,16.63
2019-04-16T12:52:34.795Z,14.60
2019-04-16T12:55:09.131Z,14.20
2019-04-16T12:57:46.879Z,14.30
2019-04-16T13:00:31.285Z,13.43
2019-04-16T13:03:07.529Z,17.93
2019-04-16T13:05:57.056Z,17.70
2019-04-16T13:08:34.528Z,14.50
2019-04-16T13:11:09.178Z,18.37
2019-04-16T13:13:56.826Z,18.65
2019-04-16T13:16:31.420Z,16.60
2019-04-16T13:19:09.215Z,15.03
2019-04-16T13:21:43.640Z,13.30
2019-04-16T13:24:26.324Z,13.30
2019-04-16T13:27:14.053Z,16.48
2019-04-16T13:29:43.426Z,19.82
2019-04-16T13:32:13.024Z,20.00
2019-04-16T13:34:42.651Z,16.25
2019-04-16T13:37:12.141Z,18.87
2019-04-16T13:39:48.914Z,18.23
2019-04-16T13:42:18.546Z,19.63
2019-04-16T13:44:52.523Z,18.03
2019-04-16T13:47:22.176Z,19.60
2019-04-16T13:50:03.687Z,18.73
2019-04-16T13:52:35.907Z,18.50
2019-04-16T13:55:22.590Z,18.93
2019-04-16T13:58:05.814Z,18.07
2019-04-16T14:00:38.227Z,17.67
2019-04-16T14:03:09.244Z,21.10
2019-04-16T14:05:40.897Z,18.90
2019-04-16T14:08:10.017Z,19.52
2019-04-16T14:10:43.001Z,17.33
2019-04-16T14:13:13.483Z,19.70
2019-04-16T14:15:44.775Z,18.25
2019-04-16T14:18:14.263Z,17.50
2019-04-16T14:20:43.963Z,19.50
2019-04-16T14:23:13.356Z,19.20
2019-04-16T14:25:43.024Z,17.80
2019-04-16T14:28:12.482Z,19.77
2019-04-16T14:30:44.147Z,19.52
2019-04-16T14:33:15.159Z,19.27
2019-04-16T14:35:44.568Z,14.97
2019-04-16T14:38:15.875Z,20.97
2019-04-16T14:40:45.242Z,25.13
2019-04-16T14:43:16.375Z,20.20
2019-04-16T14:45:57.593Z,19.77
2019-04-16T14:48:18.433Z,21.07
2019-04-16T14:50:48.216Z,20.40
2019-04-16T14:53:19.483Z,23.90
2019-04-16T14:56:00.554Z,19.85
2019-04-16T14:58:33.910Z,20.93
2019-04-16T15:01:05.051Z,22.10
2019-04-16T15:03:38.643Z,19.87
2019-04-16T15:06:12.958Z,19.00
2019-04-16T15:08:55.888Z,19.30
2019-04-16T15:11:39.923Z,15.63
2019-04-16T15:14:20.016Z,19.77
2019-04-16T15:16:57.148Z,20.50
2019-04-16T15:19:30.978Z,18.53
2019-04-16T15:22:18.713Z,19.77
2019-04-16T15:25:08.011Z,19.60
2019-04-16T15:27:39.333Z,18.37
2019-04-16T15:30:13.347Z,20.73
2019-04-16T15:32:45.147Z,20.03
2019-04-16T15:35:16.164Z,21.50
2019-04-16T15:37:54.641Z,21.37
2019-04-16T15:40:30.918Z,20.00
2019-04-16T15:43:19.615Z,23.10
2019-04-16T15:45:55.861Z,22.63
2019-04-16T15:48:32.711Z,20.60
2019-04-16T15:51:13.955Z,21.97
2019-04-16T15:53:42.433Z,23.13
2019-04-16T15:56:13.720Z,25.63
2019-04-16T15:58:47.285Z,19.37
2019-04-16T16:01:21.449Z,20.57
2019-04-16T16:03:58.301Z,16.80
2019-04-16T16:06:29.403Z,21.50
2019-04-16T16:09:03.765Z,22.50
2019-04-16T16:11:48.064Z,19.25
2019-04-16T16:14:16.175Z,15.27
2019-04-16T16:16:47.793Z,20.10
2019-04-16T16:19:16.968Z,20.13
2019-04-16T16:21:46.603Z,23.90
2019-04-16T16:24:16.279Z,20.12
2019-04-16T16:26:45.669Z,24.23
2019-04-16T16:29:15.289Z,21.37
2019-04-16T16:31:50.568Z,21.12
2019-04-16T16:34:21.320Z,25.33
2019-04-16T16:36:50.875Z,19.77
2019-04-16T16:39:20.436Z,23.33
2019-04-16T16:41:50.209Z,22.00
2019-04-16T16:44:19.582Z,22.43
2019-04-16T16:46:59.680Z,19.50
2019-04-16T16:49:29.426Z,22.75
2019-04-16T16:52:09.465Z,25.20
2019-04-16T16:54:39.902Z,24.98
2019-04-16T16:57:11.318Z,20.30
2019-04-16T16:59:45.017Z,21.30
2019-04-16T17:02:34.674Z,21.43
2019-04-16T17:05:07.323Z,21.30
2019-04-16T17:07:36.694Z,20.70
2019-04-16T17:10:06.937Z,21.73
2019-04-16T17:12:36.563Z,22.23
2019-04-16T17:15:08.943Z,20.47
2019-04-16T17:17:39.362Z,21.33
2019-04-16T17:20:09.181Z,21.07
2019-04-16T17:22:40.813Z,14.07
2019-04-16T17:25:12.136Z,23.67
2019-04-16T17:27:51.036Z,18.47
2019-04-16T17:30:13.306Z,21.33
2019-04-16T17:32:42.983Z,24.20
2019-04-16T17:35:15.511Z,22.70
2019-04-16T17:37:43.900Z,22.10
2019-04-16T17:40:27.600Z,21.63
2019-04-16T17:43:01.407Z,21.47
2019-04-16T17:45:39.019Z,23.40
2019-04-16T17:48:13.325Z,23.50
2019-04-16T17:50:51.048Z,22.85
2019-04-16T17:53:36.812Z,22.07
2019-04-16T17:56:23.989Z,20.80
2019-04-16T17:58:55.351Z,23.40
2019-04-16T18:01:29.044Z,22.93
2019-04-16T18:04:00.354Z,21.03
2019-04-16T18:06:40.704Z,20.53
2019-04-16T18:09:13.176Z,21.87
2019-04-16T18:11:47.583Z,21.93
2019-04-16T18:14:34.964Z,20.13
2019-04-16T18:17:17.739Z,19.60
2019-04-16T18:20:04.010Z,19.67
2019-04-16T18:22:41.889Z,21.87
2019-04-16T18:25:12.205Z,19.43
2019-04-16T18:27:46.578Z,21.10
2019-04-16T18:30:35.137Z,22.30
2019-04-16T18:33:15.121Z,19.47
2019-04-16T18:36:01.938Z,21.20
2019-04-16T18:38:35.562Z,20.95
2019-04-16T18:41:15.466Z,22.50
2019-04-16T18:44:03.160Z,18.57
2019-04-16T18:46:40.931Z,21.42
2019-04-16T18:49:14.310Z,18.73
2019-04-16T18:51:43.763Z,22.63
2019-04-16T18:54:14.967Z,19.77
2019-04-16T18:56:44.646Z,20.70
2019-04-16T18:59:14.032Z,27.57
2019-04-16T19:01:45.333Z,19.90
2019-04-16T19:04:15.075Z,19.23
2019-04-16T19:06:44.751Z,20.70
2019-04-16T19:09:14.373Z,21.10
2019-04-16T19:11:44.852Z,17.90
2019-04-16T19:14:14.238Z,17.47
2019-04-16T19:16:43.947Z,20.02
2019-04-16T19:19:13.354Z,20.77
2019-04-16T19:21:43.328Z,20.10
2019-04-16T19:24:12.726Z,21.97
2019-04-16T19:26:42.208Z,16.93
2019-04-16T19:29:14.517Z,24.10
2019-04-16T19:31:43.092Z,21.63
2019-04-16T19:34:12.793Z,20.75
2019-04-16T19:36:42.154Z,17.60
2019-04-16T19:39:15.116Z,21.48
2019-04-16T19:41:43.949Z,20.50
2019-04-16T19:44:13.359Z,20.97
2019-04-16T19:46:45.994Z,23.62
2019-04-16T19:49:14.389Z,18.20
2019-04-16T19:51:43.863Z,19.57
2019-04-16T19:54:13.243Z,18.87
2019-04-16T19:56:43.134Z,18.45
2019-04-16T19:59:12.500Z,26.23
2019-04-16T20:01:42.195Z,20.30
2019-04-16T20:04:11.921Z,22.80
2019-04-16T20:06:41.292Z,19.27
2019-04-16T20:09:10.908Z,22.83
2019-04-16T20:11:42.184Z,24.80
2019-04-16T20:14:11.633Z,19.17
2019-04-16T20:16:41.256Z,19.90
2019-04-16T20:19:11.470Z,20.00
2019-04-16T20:21:40.950Z,21.30
2019-04-16T20:24:11.702Z,19.30
2019-04-16T20:26:41.070Z,19.87
2019-04-16T20:29:10.788Z,18.60
2019-04-16T20:31:41.450Z,17.95
2019-04-16T20:34:12.412Z,20.33
2019-04-16T20:36:42.384Z,21.27
2019-04-16T20:39:12.261Z,20.40
2019-04-16T20:41:43.669Z,18.43
2019-04-16T20:44:14.931Z,18.73
2019-04-16T20:46:44.309Z,18.93
2019-04-16T20:49:16.817Z,21.00
2019-04-16T20:51:45.335Z,20.20
2019-04-16T20:54:15.917Z,18.97
2019-04-16T20:56:45.278Z,17.97
2019-04-16T20:59:16.458Z,20.68
2019-04-16T21:01:47.306Z,18.90
2019-04-16T21:04:17.854Z,22.37
2019-04-16T21:06:47.209Z,25.60
2019-04-16T21:09:17.143Z,18.07
2019-04-16T21:11:46.870Z,21.57
2019-04-16T21:14:18.934Z,18.80
2019-04-16T21:16:47.373Z,18.43
2019-04-16T21:19:23.342Z,19.40
2019-04-16T21:21:48.863Z,17.33
2019-04-16T21:24:18.243Z,20.27
2019-04-16T21:26:51.031Z,18.40
2019-04-16T21:29:21.655Z,16.80
2019-04-16T21:31:53.858Z,20.07
2019-04-16T21:34:29.508Z,15.57
2019-04-16T21:37:14.282Z,16.43
2019-04-16T21:39:51.310Z,15.53
2019-04-16T21:42:19.405Z,19.00
2019-04-16T21:44:50.031Z,20.20
2019-04-16T21:47:23.633Z,18.80
2019-04-16T21:49:53.822Z,19.63
2019-04-16T21:52:23.970Z,20.00
2019-04-16T21:54:53.683Z,18.20
2019-04-16T21:57:23.135Z,17.43
2019-04-16T21:59:56.985Z,19.63
2019-04-16T22:02:34.330Z,20.17
2019-04-16T22:05:02.452Z,17.30
2019-04-16T22:07:32.251Z,16.85
2019-04-16T22:10:02.106Z,14.70
2019-04-16T22:12:32.664Z,18.60
2019-04-16T22:15:02.157Z,23.03
2019-04-16T22:17:35.495Z,18.48
2019-04-16T22:20:04.069Z,19.77
2019-04-16T22:22:34.192Z,20.40
2019-04-16T22:25:04.620Z,18.77
2019-04-16T22:27:36.698Z,15.60
2019-04-16T22:30:07.266Z,16.90
2019-04-16T22:32:37.612Z,18.57
2019-04-16T22:35:07.294Z,18.40
2019-04-16T22:37:36.694Z,17.90
2019-04-16T22:40:14.592Z,18.33
2019-04-16T22:43:06.233Z,17.23
2019-04-16T22:45:40.852Z,19.42
2019-04-16T22:48:10.509Z,19.67
2019-04-16T22:50:40.913Z,18.40
2019-04-16T22:53:10.317Z,18.43
2019-04-16T22:55:42.556Z,19.60
2019-04-16T22:58:24.019Z,18.63
2019-04-16T23:00:55.401Z,19.67
2019-04-16T23:03:26.334Z,18.30
2019-04-16T23:05:56.270Z,19.83
2019-04-16T23:08:25.656Z,21.77
2019-04-16T23:10:55.375Z,20.73
2019-04-16T23:13:24.747Z,18.03
2019-04-16T23:15:54.627Z,16.63
2019-04-16T23:18:24.649Z,16.93
2019-04-16T23:20:54.417Z,19.47
2019-04-16T23:23:23.788Z,20.80
2019-04-16T23:25:53.442Z,17.30
2019-04-16T23:28:22.810Z,19.00
2019-04-16T23:30:52.340Z,18.83
2019-04-16T23:33:21.701Z,17.60
2019-04-16T23:35:51.392Z,17.77
2019-04-16T23:38:20.762Z,15.73
2019-04-16T23:40:50.399Z,17.30
2019-04-16T23:43:30.360Z,17.33
2019-04-16T23:46:17.711Z,17.47
2019-04-16T23:48:57.687Z,16.37
2019-04-16T23:51:32.590Z,15.58
2019-04-16T23:54:08.274Z,15.97
2019-04-16T23:56:41.755Z,18.47
2019-04-16T23:59:15.912Z,15.80
